sensor_id;sensor_type;location;lat;lon;timestamp;P1;durP1;ratioP1;P2;durP2;ratioP2
52894;SDS011;38759;53.396;6.722;2024-02-16T00:02:17;10.88;;;5.40;;
52894;SDS011;38759;53.396;6.722;2024-02-16T00:04:43;11.18;;;5.47;;
52894;SDS011;38759;53.396;6.722;2024-02-16T00:07:09;9.75;;;5.28;;
52894;SDS011;38759;53.396;6.722;2024-02-16T00:09:35;9.68;;;4.93;;
52894;SDS011;38759;53.396;6.722;2024-02-16T00:12:01;9.15;;;5.13;;
52894;SDS011;38759;53.396;6.722;2024-02-16T00:14:27;8.25;;;4.50;;
52894;SDS011;38759;53.396;6.722;2024-02-16T00:16:55;9.10;;;4.80;;
52894;SDS011;38759;53.396;6.722;2024-02-16T00:19:30;13.30;;;4.82;;
52894;SDS011;38759;53.396;6.722;2024-02-16T00:21:56;10.55;;;4.90;;
52894;SDS011;38759;53.396;6.722;2024-02-16T00:24:22;8.35;;;4.90;;
52894;SDS011;38759;53.396;6.722;2024-02-16T00:26:48;9.18;;;4.53;;
52894;SDS011;38759;53.396;6.722;2024-02-16T00:29:14;9.50;;;4.95;;
52894;SDS011;38759;53.396;6.722;2024-02-16T00:31:40;8.50;;;4.78;;
52894;SDS011;38759;53.396;6.722;2024-02-16T00:34:05;7.03;;;4.47;;
52894;SDS011;38759;53.396;6.722;2024-02-16T00:36:31;9.43;;;4.68;;
52894;SDS011;38759;53.396;6.722;2024-02-16T00:38:59;9.38;;;4.45;;
52894;SDS011;38759;53.396;6.722;2024-02-16T00:41:24;8.25;;;4.40;;
52894;SDS011;38759;53.396;6.722;2024-02-16T00:43:51;9.15;;;4.50;;
52894;SDS011;38759;53.396;6.722;2024-02-16T00:46:17;8.05;;;4.57;;
52894;SDS011;38759;53.396;6.722;2024-02-16T00:48:43;9.38;;;4.20;;
52894;SDS011;38759;53.396;6.722;2024-02-16T00:51:09;6.47;;;4.38;;
52894;SDS011;38759;53.396;6.722;2024-02-16T00:53:34;10.55;;;4.45;;
52894;SDS011;38759;53.396;6.722;2024-02-16T00:56:00;8.48;;;4.00;;
52894;SDS011;38759;53.396;6.722;2024-02-16T00:58:26;9.10;;;4.32;;
52894;SDS011;38759;53.396;6.722;2024-02-16T01:00:51;6.22;;;3.95;;
52894;SDS011;38759;53.396;6.722;2024-02-16T01:03:18;6.72;;;4.15;;
52894;SDS011;38759;53.396;6.722;2024-02-16T01:05:43;7.78;;;4.05;;
52894;SDS011;38759;53.396;6.722;2024-02-16T01:08:09;8.77;;;5.10;;
52894;SDS011;38759;53.396;6.722;2024-02-16T01:10:35;10.55;;;4.50;;
52894;SDS011;38759;53.396;6.722;2024-02-16T01:13:01;9.38;;;4.55;;
52894;SDS011;38759;53.396;6.722;2024-02-16T01:15:28;7.32;;;4.07;;
52894;SDS011;38759;53.396;6.722;2024-02-16T01:17:54;6.63;;;4.20;;
52894;SDS011;38759;53.396;6.722;2024-02-16T01:20:19;9.13;;;4.30;;
52894;SDS011;38759;53.396;6.722;2024-02-16T01:22:45;10.32;;;4.40;;
52894;SDS011;38759;53.396;6.722;2024-02-16T01:25:11;8.45;;;4.47;;
52894;SDS011;38759;53.396;6.722;2024-02-16T01:27:37;9.30;;;4.40;;
52894;SDS011;38759;53.396;6.722;2024-02-16T01:30:03;8.15;;;4.47;;
52894;SDS011;38759;53.396;6.722;2024-02-16T01:32:29;10.75;;;4.53;;
52894;SDS011;38759;53.396;6.722;2024-02-16T01:34:54;7.55;;;4.15;;
52894;SDS011;38759;53.396;6.722;2024-02-16T01:37:20;10.82;;;4.53;;
52894;SDS011;38759;53.396;6.722;2024-02-16T01:39:46;6.85;;;3.95;;
52894;SDS011;38759;53.396;6.722;2024-02-16T01:42:12;6.88;;;4.07;;
52894;SDS011;38759;53.396;6.722;2024-02-16T01:44:37;6.60;;;4.13;;
52894;SDS011;38759;53.396;6.722;2024-02-16T01:47:03;9.98;;;4.18;;
52894;SDS011;38759;53.396;6.722;2024-02-16T01:49:29;7.32;;;4.15;;
52894;SDS011;38759;53.396;6.722;2024-02-16T01:51:56;6.35;;;4.13;;
52894;SDS011;38759;53.396;6.722;2024-02-16T01:54:22;6.93;;;4.13;;
52894;SDS011;38759;53.396;6.722;2024-02-16T01:56:48;9.45;;;4.32;;
52894;SDS011;38759;53.396;6.722;2024-02-16T01:59:16;8.60;;;4.10;;
52894;SDS011;38759;53.396;6.722;2024-02-16T02:01:42;10.88;;;4.60;;
52894;SDS011;38759;53.396;6.722;2024-02-16T02:04:08;7.72;;;4.05;;
52894;SDS011;38759;53.396;6.722;2024-02-16T02:06:33;7.93;;;4.40;;
52894;SDS011;38759;53.396;6.722;2024-02-16T02:09:00;8.68;;;4.22;;
52894;SDS011;38759;53.396;6.722;2024-02-16T02:11:25;8.80;;;4.07;;
52894;SDS011;38759;53.396;6.722;2024-02-16T02:13:52;9.10;;;4.00;;
52894;SDS011;38759;53.396;6.722;2024-02-16T02:16:18;7.18;;;3.88;;
52894;SDS011;38759;53.396;6.722;2024-02-16T02:18:44;6.35;;;3.60;;
52894;SDS011;38759;53.396;6.722;2024-02-16T02:21:10;9.98;;;4.28;;
52894;SDS011;38759;53.396;6.722;2024-02-16T02:23:38;9.82;;;4.03;;
52894;SDS011;38759;53.396;6.722;2024-02-16T02:26:03;6.00;;;3.60;;
52894;SDS011;38759;53.396;6.722;2024-02-16T02:28:29;7.55;;;3.80;;
52894;SDS011;38759;53.396;6.722;2024-02-16T02:30:55;8.18;;;4.07;;
52894;SDS011;38759;53.396;6.722;2024-02-16T02:33:20;7.75;;;3.72;;
52894;SDS011;38759;53.396;6.722;2024-02-16T02:35:46;6.13;;;3.78;;
52894;SDS011;38759;53.396;6.722;2024-02-16T02:38:12;10.50;;;3.88;;
52894;SDS011;38759;53.396;6.722;2024-02-16T02:40:38;9.77;;;4.00;;
52894;SDS011;38759;53.396;6.722;2024-02-16T02:43:04;8.55;;;3.85;;
52894;SDS011;38759;53.396;6.722;2024-02-16T02:45:31;5.95;;;3.45;;
52894;SDS011;38759;53.396;6.722;2024-02-16T02:47:56;7.15;;;3.78;;
52894;SDS011;38759;53.396;6.722;2024-02-16T02:50:22;10.07;;;3.90;;
52894;SDS011;38759;53.396;6.722;2024-02-16T02:52:49;10.35;;;3.80;;
52894;SDS011;38759;53.396;6.722;2024-02-16T02:55:15;7.00;;;3.70;;
52894;SDS011;38759;53.396;6.722;2024-02-16T02:57:41;9.63;;;3.63;;
52894;SDS011;38759;53.396;6.722;2024-02-16T03:00:07;9.30;;;4.00;;
52894;SDS011;38759;53.396;6.722;2024-02-16T03:02:39;9.50;;;3.88;;
52894;SDS011;38759;53.396;6.722;2024-02-16T03:05:06;7.50;;;3.83;;
52894;SDS011;38759;53.396;6.722;2024-02-16T03:07:32;9.45;;;4.25;;
52894;SDS011;38759;53.396;6.722;2024-02-16T03:09:59;8.82;;;3.78;;
52894;SDS011;38759;53.396;6.722;2024-02-16T03:12:24;6.60;;;3.70;;
52894;SDS011;38759;53.396;6.722;2024-02-16T03:14:51;6.38;;;3.47;;
52894;SDS011;38759;53.396;6.722;2024-02-16T03:17:17;4.85;;;3.15;;
52894;SDS011;38759;53.396;6.722;2024-02-16T03:19:42;5.45;;;3.40;;
52894;SDS011;38759;53.396;6.722;2024-02-16T03:22:11;6.25;;;3.58;;
52894;SDS011;38759;53.396;6.722;2024-02-16T03:24:37;7.80;;;3.75;;
52894;SDS011;38759;53.396;6.722;2024-02-16T03:27:03;7.32;;;3.35;;
52894;SDS011;38759;53.396;6.722;2024-02-16T03:29:29;7.55;;;3.72;;
52894;SDS011;38759;53.396;6.722;2024-02-16T03:31:55;6.70;;;3.72;;
52894;SDS011;38759;53.396;6.722;2024-02-16T03:34:21;6.45;;;3.58;;
52894;SDS011;38759;53.396;6.722;2024-02-16T03:36:46;7.00;;;3.78;;
52894;SDS011;38759;53.396;6.722;2024-02-16T03:39:12;8.98;;;3.47;;
52894;SDS011;38759;53.396;6.722;2024-02-16T03:41:38;7.40;;;3.70;;
52894;SDS011;38759;53.396;6.722;2024-02-16T03:44:04;7.63;;;4.03;;
52894;SDS011;38759;53.396;6.722;2024-02-16T03:46:29;5.85;;;3.42;;
52894;SDS011;38759;53.396;6.722;2024-02-16T03:48:55;6.07;;;3.90;;
52894;SDS011;38759;53.396;6.722;2024-02-16T03:51:21;8.43;;;4.03;;
52894;SDS011;38759;53.396;6.722;2024-02-16T03:53:47;11.10;;;3.95;;
52894;SDS011;38759;53.396;6.722;2024-02-16T03:56:19;7.38;;;3.42;;
52894;SDS011;38759;53.396;6.722;2024-02-16T03:58:44;7.78;;;3.33;;
52894;SDS011;38759;53.396;6.722;2024-02-16T04:01:10;11.15;;;3.78;;
52894;SDS011;38759;53.396;6.722;2024-02-16T04:03:36;7.78;;;3.70;;
52894;SDS011;38759;53.396;6.722;2024-02-16T04:06:02;7.97;;;3.60;;
52894;SDS011;38759;53.396;6.722;2024-02-16T04:08:29;11.93;;;4.28;;
52894;SDS011;38759;53.396;6.722;2024-02-16T04:10:55;7.07;;;3.70;;
52894;SDS011;38759;53.396;6.722;2024-02-16T04:13:22;7.07;;;3.85;;
52894;SDS011;38759;53.396;6.722;2024-02-16T04:15:47;7.13;;;3.65;;
52894;SDS011;38759;53.396;6.722;2024-02-16T04:18:13;9.50;;;4.00;;
52894;SDS011;38759;53.396;6.722;2024-02-16T04:20:39;11.05;;;3.90;;
52894;SDS011;38759;53.396;6.722;2024-02-16T04:23:06;8.68;;;3.72;;
52894;SDS011;38759;53.396;6.722;2024-02-16T04:25:31;8.80;;;3.92;;
52894;SDS011;38759;53.396;6.722;2024-02-16T04:27:57;8.75;;;3.85;;
52894;SDS011;38759;53.396;6.722;2024-02-16T04:30:23;6.70;;;4.10;;
52894;SDS011;38759;53.396;6.722;2024-02-16T04:32:48;10.20;;;4.10;;
52894;SDS011;38759;53.396;6.722;2024-02-16T04:35:14;7.68;;;4.35;;
52894;SDS011;38759;53.396;6.722;2024-02-16T04:37:41;7.53;;;4.00;;
52894;SDS011;38759;53.396;6.722;2024-02-16T04:40:07;5.50;;;4.20;;
52894;SDS011;38759;53.396;6.722;2024-02-16T04:42:33;6.85;;;3.67;;
52894;SDS011;38759;53.396;6.722;2024-02-16T04:44:59;7.05;;;3.97;;
52894;SDS011;38759;53.396;6.722;2024-02-16T04:47:25;7.53;;;3.80;;
52894;SDS011;38759;53.396;6.722;2024-02-16T04:49:51;7.53;;;3.90;;
52894;SDS011;38759;53.396;6.722;2024-02-16T04:52:20;8.65;;;3.90;;
52894;SDS011;38759;53.396;6.722;2024-02-16T04:54:46;6.32;;;3.95;;
52894;SDS011;38759;53.396;6.722;2024-02-16T04:57:11;6.10;;;3.97;;
52894;SDS011;38759;53.396;6.722;2024-02-16T04:59:37;9.45;;;4.43;;
52894;SDS011;38759;53.396;6.722;2024-02-16T05:02:03;6.47;;;4.13;;
52894;SDS011;38759;53.396;6.722;2024-02-16T05:04:29;5.97;;;4.03;;
52894;SDS011;38759;53.396;6.722;2024-02-16T05:06:54;10.55;;;4.68;;
52894;SDS011;38759;53.396;6.722;2024-02-16T05:09:22;8.23;;;4.05;;
52894;SDS011;38759;53.396;6.722;2024-02-16T05:11:49;9.68;;;4.18;;
52894;SDS011;38759;53.396;6.722;2024-02-16T05:14:16;12.13;;;4.10;;
52894;SDS011;38759;53.396;6.722;2024-02-16T05:16:45;7.60;;;4.10;;
52894;SDS011;38759;53.396;6.722;2024-02-16T05:19:11;8.45;;;4.00;;
52894;SDS011;38759;53.396;6.722;2024-02-16T05:21:37;8.68;;;4.38;;
52894;SDS011;38759;53.396;6.722;2024-02-16T05:24:03;8.05;;;4.15;;
52894;SDS011;38759;53.396;6.722;2024-02-16T05:26:29;7.63;;;4.10;;
52894;SDS011;38759;53.396;6.722;2024-02-16T05:28:55;7.07;;;4.00;;
52894;SDS011;38759;53.396;6.722;2024-02-16T05:31:21;13.13;;;4.00;;
52894;SDS011;38759;53.396;6.722;2024-02-16T05:33:48;7.10;;;4.15;;
52894;SDS011;38759;53.396;6.722;2024-02-16T05:36:21;9.07;;;4.30;;
52894;SDS011;38759;53.396;6.722;2024-02-16T05:38:50;8.90;;;4.30;;
52894;SDS011;38759;53.396;6.722;2024-02-16T05:41:16;8.05;;;4.30;;
52894;SDS011;38759;53.396;6.722;2024-02-16T05:43:45;9.27;;;3.95;;
52894;SDS011;38759;53.396;6.722;2024-02-16T05:46:14;7.95;;;4.25;;
52894;SDS011;38759;53.396;6.722;2024-02-16T05:48:41;6.57;;;3.80;;
52894;SDS011;38759;53.396;6.722;2024-02-16T05:51:07;9.02;;;4.38;;
52894;SDS011;38759;53.396;6.722;2024-02-16T05:53:33;6.15;;;4.10;;
52894;SDS011;38759;53.396;6.722;2024-02-16T05:56:00;5.90;;;3.88;;
52894;SDS011;38759;53.396;6.722;2024-02-16T05:58:26;7.85;;;4.18;;
52894;SDS011;38759;53.396;6.722;2024-02-16T06:00:52;8.00;;;4.30;;
52894;SDS011;38759;53.396;6.722;2024-02-16T06:03:19;9.10;;;4.18;;
52894;SDS011;38759;53.396;6.722;2024-02-16T06:05:45;8.88;;;4.20;;
52894;SDS011;38759;53.396;6.722;2024-02-16T06:08:11;6.43;;;3.90;;
52894;SDS011;38759;53.396;6.722;2024-02-16T06:10:37;8.30;;;4.40;;
52894;SDS011;38759;53.396;6.722;2024-02-16T06:13:03;7.47;;;4.13;;
52894;SDS011;38759;53.396;6.722;2024-02-16T06:15:29;10.77;;;4.07;;
52894;SDS011;38759;53.396;6.722;2024-02-16T06:17:55;10.40;;;3.97;;
52894;SDS011;38759;53.396;6.722;2024-02-16T06:20:21;7.65;;;3.72;;
52894;SDS011;38759;53.396;6.722;2024-02-16T06:22:47;8.23;;;4.05;;
52894;SDS011;38759;53.396;6.722;2024-02-16T06:25:16;6.28;;;4.10;;
52894;SDS011;38759;53.396;6.722;2024-02-16T06:27:41;7.15;;;4.20;;
52894;SDS011;38759;53.396;6.722;2024-02-16T06:30:07;7.97;;;4.05;;
52894;SDS011;38759;53.396;6.722;2024-02-16T06:32:37;6.03;;;3.50;;
52894;SDS011;38759;53.396;6.722;2024-02-16T06:35:06;7.63;;;4.40;;
52894;SDS011;38759;53.396;6.722;2024-02-16T06:37:36;8.75;;;3.80;;
52894;SDS011;38759;53.396;6.722;2024-02-16T06:40:05;5.90;;;3.53;;
52894;SDS011;38759;53.396;6.722;2024-02-16T06:42:35;6.63;;;3.78;;
52894;SDS011;38759;53.396;6.722;2024-02-16T06:45:01;7.10;;;4.10;;
52894;SDS011;38759;53.396;6.722;2024-02-16T06:47:28;7.60;;;4.10;;
52894;SDS011;38759;53.396;6.722;2024-02-16T06:49:54;7.75;;;4.20;;
52894;SDS011;38759;53.396;6.722;2024-02-16T06:52:20;7.45;;;3.75;;
52894;SDS011;38759;53.396;6.722;2024-02-16T06:54:45;6.65;;;3.75;;
52894;SDS011;38759;53.396;6.722;2024-02-16T06:57:11;7.88;;;3.72;;
52894;SDS011;38759;53.396;6.722;2024-02-16T06:59:37;9.23;;;4.53;;
52894;SDS011;38759;53.396;6.722;2024-02-16T07:02:02;7.03;;;4.28;;
52894;SDS011;38759;53.396;6.722;2024-02-16T07:04:28;6.35;;;3.95;;
52894;SDS011;38759;53.396;6.722;2024-02-16T07:06:54;6.70;;;4.22;;
52894;SDS011;38759;53.396;6.722;2024-02-16T07:09:20;6.53;;;3.90;;
52894;SDS011;38759;53.396;6.722;2024-02-16T07:11:47;8.05;;;4.13;;
52894;SDS011;38759;53.396;6.722;2024-02-16T07:14:15;6.75;;;4.05;;
52894;SDS011;38759;53.396;6.722;2024-02-16T07:16:41;6.10;;;3.70;;
52894;SDS011;38759;53.396;6.722;2024-02-16T07:19:06;6.32;;;3.95;;
52894;SDS011;38759;53.396;6.722;2024-02-16T07:21:32;8.05;;;4.30;;
52894;SDS011;38759;53.396;6.722;2024-02-16T07:23:58;7.95;;;4.10;;
52894;SDS011;38759;53.396;6.722;2024-02-16T07:26:23;7.72;;;4.10;;
52894;SDS011;38759;53.396;6.722;2024-02-16T07:28:49;6.97;;;3.60;;
52894;SDS011;38759;53.396;6.722;2024-02-16T07:31:15;7.05;;;3.88;;
52894;SDS011;38759;53.396;6.722;2024-02-16T07:33:41;9.95;;;3.63;;
52894;SDS011;38759;53.396;6.722;2024-02-16T07:36:07;6.03;;;3.85;;
52894;SDS011;38759;53.396;6.722;2024-02-16T07:38:33;6.70;;;3.80;;
52894;SDS011;38759;53.396;6.722;2024-02-16T07:40:59;12.70;;;4.18;;
52894;SDS011;38759;53.396;6.722;2024-02-16T07:43:25;6.85;;;3.70;;
52894;SDS011;38759;53.396;6.722;2024-02-16T07:45:52;9.25;;;3.58;;
52894;SDS011;38759;53.396;6.722;2024-02-16T07:48:21;6.35;;;3.95;;
52894;SDS011;38759;53.396;6.722;2024-02-16T07:50:47;6.57;;;3.47;;
52894;SDS011;38759;53.396;6.722;2024-02-16T07:53:13;8.00;;;3.80;;
52894;SDS011;38759;53.396;6.722;2024-02-16T07:55:39;6.55;;;3.95;;
52894;SDS011;38759;53.396;6.722;2024-02-16T07:58:05;5.35;;;3.97;;
52894;SDS011;38759;53.396;6.722;2024-02-16T08:00:30;8.52;;;3.88;;
52894;SDS011;38759;53.396;6.722;2024-02-16T08:02:56;8.50;;;4.22;;
52894;SDS011;38759;53.396;6.722;2024-02-16T08:05:22;8.00;;;4.28;;
52894;SDS011;38759;53.396;6.722;2024-02-16T08:07:49;5.15;;;3.88;;
52894;SDS011;38759;53.396;6.722;2024-02-16T08:10:18;9.15;;;3.95;;
52894;SDS011;38759;53.396;6.722;2024-02-16T08:12:47;8.80;;;3.85;;
52894;SDS011;38759;53.396;6.722;2024-02-16T08:15:13;5.78;;;4.07;;
52894;SDS011;38759;53.396;6.722;2024-02-16T08:17:39;5.95;;;3.78;;
52894;SDS011;38759;53.396;6.722;2024-02-16T08:20:05;9.15;;;4.10;;
52894;SDS011;38759;53.396;6.722;2024-02-16T08:22:31;7.80;;;3.85;;
52894;SDS011;38759;53.396;6.722;2024-02-16T08:24:58;7.30;;;4.63;;
52894;SDS011;38759;53.396;6.722;2024-02-16T08:27:24;6.30;;;4.03;;
52894;SDS011;38759;53.396;6.722;2024-02-16T08:29:50;5.80;;;3.97;;
52894;SDS011;38759;53.396;6.722;2024-02-16T08:32:18;9.98;;;4.40;;
52894;SDS011;38759;53.396;6.722;2024-02-16T08:34:45;9.95;;;4.70;;
52894;SDS011;38759;53.396;6.722;2024-02-16T08:37:13;8.10;;;4.43;;
52894;SDS011;38759;53.396;6.722;2024-02-16T08:39:40;6.55;;;3.95;;
52894;SDS011;38759;53.396;6.722;2024-02-16T08:42:06;7.22;;;3.83;;
52894;SDS011;38759;53.396;6.722;2024-02-16T08:44:34;7.30;;;4.40;;
52894;SDS011;38759;53.396;6.722;2024-02-16T08:47:00;6.32;;;4.30;;
52894;SDS011;38759;53.396;6.722;2024-02-16T08:49:25;6.82;;;4.13;;
52894;SDS011;38759;53.396;6.722;2024-02-16T08:51:52;7.53;;;4.43;;
52894;SDS011;38759;53.396;6.722;2024-02-16T08:54:17;8.18;;;4.43;;
52894;SDS011;38759;53.396;6.722;2024-02-16T08:56:44;6.32;;;4.50;;
52894;SDS011;38759;53.396;6.722;2024-02-16T08:59:10;7.38;;;4.60;;
52894;SDS011;38759;53.396;6.722;2024-02-16T09:01:37;7.85;;;4.22;;
52894;SDS011;38759;53.396;6.722;2024-02-16T09:04:06;8.50;;;4.55;;
52894;SDS011;38759;53.396;6.722;2024-02-16T09:06:32;7.53;;;4.40;;
52894;SDS011;38759;53.396;6.722;2024-02-16T09:08:59;8.63;;;4.50;;
52894;SDS011;38759;53.396;6.722;2024-02-16T09:11:25;9.98;;;4.68;;
52894;SDS011;38759;53.396;6.722;2024-02-16T09:13:51;7.05;;;4.32;;
52894;SDS011;38759;53.396;6.722;2024-02-16T09:16:17;7.68;;;4.63;;
52894;SDS011;38759;53.396;6.722;2024-02-16T09:18:42;7.55;;;4.57;;
52894;SDS011;38759;53.396;6.722;2024-02-16T09:21:08;6.80;;;4.57;;
52894;SDS011;38759;53.396;6.722;2024-02-16T09:23:34;6.15;;;4.70;;
52894;SDS011;38759;53.396;6.722;2024-02-16T09:26:01;9.88;;;4.93;;
52894;SDS011;38759;53.396;6.722;2024-02-16T09:28:27;9.07;;;4.82;;
52894;SDS011;38759;53.396;6.722;2024-02-16T09:30:56;6.25;;;4.47;;
52894;SDS011;38759;53.396;6.722;2024-02-16T09:33:23;8.82;;;4.75;;
52894;SDS011;38759;53.396;6.722;2024-02-16T09:35:49;8.48;;;5.30;;
52894;SDS011;38759;53.396;6.722;2024-02-16T09:38:16;9.38;;;5.28;;
52894;SDS011;38759;53.396;6.722;2024-02-16T09:40:42;6.80;;;5.25;;
52894;SDS011;38759;53.396;6.722;2024-02-16T09:43:08;8.70;;;5.15;;
52894;SDS011;38759;53.396;6.722;2024-02-16T09:45:34;7.82;;;5.05;;
52894;SDS011;38759;53.396;6.722;2024-02-16T09:47:59;7.43;;;5.10;;
52894;SDS011;38759;53.396;6.722;2024-02-16T09:50:27;9.18;;;5.30;;
52894;SDS011;38759;53.396;6.722;2024-02-16T09:52:54;7.57;;;5.28;;
52894;SDS011;38759;53.396;6.722;2024-02-16T09:55:21;7.68;;;5.40;;
52894;SDS011;38759;53.396;6.722;2024-02-16T09:57:57;8.18;;;5.88;;
52894;SDS011;38759;53.396;6.722;2024-02-16T10:00:24;11.02;;;5.50;;
52894;SDS011;38759;53.396;6.722;2024-02-16T10:02:50;8.27;;;5.00;;
52894;SDS011;38759;53.396;6.722;2024-02-16T10:05:16;7.88;;;5.63;;
52894;SDS011;38759;53.396;6.722;2024-02-16T10:07:44;9.55;;;5.72;;
52894;SDS011;38759;53.396;6.722;2024-02-16T10:10:19;9.05;;;5.53;;
52894;SDS011;38759;53.396;6.722;2024-02-16T10:13:11;11.73;;;6.15;;
52894;SDS011;38759;53.396;6.722;2024-02-16T10:15:37;10.20;;;6.20;;
52894;SDS011;38759;53.396;6.722;2024-02-16T10:18:04;9.50;;;6.05;;
52894;SDS011;38759;53.396;6.722;2024-02-16T10:20:33;8.60;;;6.15;;
52894;SDS011;38759;53.396;6.722;2024-02-16T10:23:06;10.07;;;6.15;;
52894;SDS011;38759;53.396;6.722;2024-02-16T10:25:34;9.05;;;6.00;;
52894;SDS011;38759;53.396;6.722;2024-02-16T10:28:05;11.80;;;6.00;;
52894;SDS011;38759;53.396;6.722;2024-02-16T10:30:36;9.00;;;5.80;;
52894;SDS011;38759;53.396;6.722;2024-02-16T10:33:07;9.43;;;6.30;;
52894;SDS011;38759;53.396;6.722;2024-02-16T10:35:36;9.50;;;6.40;;
52894;SDS011;38759;53.396;6.722;2024-02-16T10:38:02;9.18;;;6.00;;
52894;SDS011;38759;53.396;6.722;2024-02-16T10:40:37;9.93;;;6.35;;
52894;SDS011;38759;53.396;6.722;2024-02-16T10:43:07;10.85;;;6.70;;
52894;SDS011;38759;53.396;6.722;2024-02-16T10:45:37;10.77;;;6.97;;
52894;SDS011;38759;53.396;6.722;2024-02-16T10:48:04;9.13;;;7.20;;
52894;SDS011;38759;53.396;6.722;2024-02-16T10:50:31;12.15;;;7.00;;
52894;SDS011;38759;53.396;6.722;2024-02-16T10:53:00;10.05;;;6.97;;
52894;SDS011;38759;53.396;6.722;2024-02-16T10:55:37;12.45;;;7.05;;
52894;SDS011;38759;53.396;6.722;2024-02-16T10:58:03;9.25;;;7.20;;
52894;SDS011;38759;53.396;6.722;2024-02-16T11:00:31;12.00;;;7.25;;
52894;SDS011;38759;53.396;6.722;2024-02-16T11:03:01;10.43;;;7.32;;
52894;SDS011;38759;53.396;6.722;2024-02-16T11:05:35;12.63;;;7.65;;
52894;SDS011;38759;53.396;6.722;2024-02-16T11:08:05;10.23;;;7.85;;
52894;SDS011;38759;53.396;6.722;2024-02-16T11:10:38;13.30;;;8.32;;
52894;SDS011;38759;53.396;6.722;2024-02-16T11:13:04;14.20;;;8.82;;
52894;SDS011;38759;53.396;6.722;2024-02-16T11:15:33;18.25;;;8.70;;
52894;SDS011;38759;53.396;6.722;2024-02-16T11:18:00;12.88;;;8.30;;
52894;SDS011;38759;53.396;6.722;2024-02-16T11:20:26;12.20;;;8.90;;
52894;SDS011;38759;53.396;6.722;2024-02-16T11:22:52;15.50;;;8.65;;
52894;SDS011;38759;53.396;6.722;2024-02-16T11:25:19;17.45;;;8.98;;
52894;SDS011;38759;53.396;6.722;2024-02-16T11:27:55;15.32;;;9.40;;
52894;SDS011;38759;53.396;6.722;2024-02-16T11:30:21;17.77;;;9.60;;
52894;SDS011;38759;53.396;6.722;2024-02-16T11:32:47;21.92;;;11.25;;
52894;SDS011;38759;53.396;6.722;2024-02-16T11:35:12;22.15;;;11.27;;
52894;SDS011;38759;53.396;6.722;2024-02-16T11:37:38;23.10;;;11.95;;
52894;SDS011;38759;53.396;6.722;2024-02-16T11:40:04;18.45;;;11.68;;
52894;SDS011;38759;53.396;6.722;2024-02-16T11:42:33;23.23;;;12.35;;
52894;SDS011;38759;53.396;6.722;2024-02-16T11:45:00;23.20;;;12.68;;
52894;SDS011;38759;53.396;6.722;2024-02-16T11:47:26;23.70;;;13.02;;
52894;SDS011;38759;53.396;6.722;2024-02-16T11:52:39;19.30;;;12.43;;
52894;SDS011;38759;53.396;6.722;2024-02-16T11:55:09;20.33;;;12.07;;
52894;SDS011;38759;53.396;6.722;2024-02-16T11:57:36;17.42;;;11.68;;
52894;SDS011;38759;53.396;6.722;2024-02-16T12:00:03;18.13;;;11.45;;
52894;SDS011;38759;53.396;6.722;2024-02-16T12:02:34;18.92;;;11.10;;
52894;SDS011;38759;53.396;6.722;2024-02-16T12:05:00;20.15;;;11.80;;
52894;SDS011;38759;53.396;6.722;2024-02-16T12:07:26;19.60;;;9.93;;
52894;SDS011;38759;53.396;6.722;2024-02-16T12:09:58;21.33;;;11.65;;
52894;SDS011;38759;53.396;6.722;2024-02-16T12:12:25;18.92;;;11.43;;
52894;SDS011;38759;53.396;6.722;2024-02-16T12:14:52;22.50;;;11.80;;
52894;SDS011;38759;53.396;6.722;2024-02-16T12:17:19;21.63;;;11.25;;
52894;SDS011;38759;53.396;6.722;2024-02-16T12:19:45;18.58;;;11.07;;
52894;SDS011;38759;53.396;6.722;2024-02-16T12:22:16;21.30;;;11.07;;
52894;SDS011;38759;53.396;6.722;2024-02-16T12:24:44;21.85;;;11.00;;
52894;SDS011;38759;53.396;6.722;2024-02-16T12:27:15;22.25;;;9.30;;
52894;SDS011;38759;53.396;6.722;2024-02-16T12:29:41;17.83;;;10.13;;
52894;SDS011;38759;53.396;6.722;2024-02-16T12:32:06;20.55;;;9.40;;
52894;SDS011;38759;53.396;6.722;2024-02-16T12:34:34;18.38;;;8.23;;
52894;SDS011;38759;53.396;6.722;2024-02-16T12:37:04;19.05;;;10.30;;
52894;SDS011;38759;53.396;6.722;2024-02-16T12:39:35;23.30;;;11.02;;
52894;SDS011;38759;53.396;6.722;2024-02-16T12:42:01;22.35;;;10.38;;
52894;SDS011;38759;53.396;6.722;2024-02-16T12:44:27;18.00;;;10.35;;
52894;SDS011;38759;53.396;6.722;2024-02-16T12:46:53;17.52;;;9.55;;
52894;SDS011;38759;53.396;6.722;2024-02-16T12:49:19;16.65;;;9.57;;
52894;SDS011;38759;53.396;6.722;2024-02-16T12:51:47;19.17;;;9.00;;
52894;SDS011;38759;53.396;6.722;2024-02-16T12:54:16;13.45;;;8.40;;
52894;SDS011;38759;53.396;6.722;2024-02-16T12:56:47;13.18;;;7.65;;
52894;SDS011;38759;53.396;6.722;2024-02-16T12:59:14;13.63;;;6.10;;
52894;SDS011;38759;53.396;6.722;2024-02-16T13:01:41;7.57;;;4.72;;
52894;SDS011;38759;53.396;6.722;2024-02-16T13:04:08;10.77;;;6.28;;
52894;SDS011;38759;53.396;6.722;2024-02-16T13:06:34;8.13;;;5.50;;
52894;SDS011;38759;53.396;6.722;2024-02-16T13:08:59;9.05;;;5.45;;
52894;SDS011;38759;53.396;6.722;2024-02-16T13:11:25;8.95;;;5.28;;
52894;SDS011;38759;53.396;6.722;2024-02-16T13:13:51;9.32;;;5.43;;
52894;SDS011;38759;53.396;6.722;2024-02-16T13:16:17;6.13;;;4.18;;
52894;SDS011;38759;53.396;6.722;2024-02-16T13:18:43;4.13;;;3.50;;
52894;SDS011;38759;53.396;6.722;2024-02-16T13:21:09;5.22;;;3.10;;
52894;SDS011;38759;53.396;6.722;2024-02-16T13:23:35;4.80;;;3.08;;
52894;SDS011;38759;53.396;6.722;2024-02-16T13:26:01;3.85;;;3.17;;
52894;SDS011;38759;53.396;6.722;2024-02-16T13:28:27;4.53;;;2.00;;
52894;SDS011;38759;53.396;6.722;2024-02-16T13:30:52;2.15;;;1.95;;
52894;SDS011;38759;53.396;6.722;2024-02-16T13:33:18;3.80;;;1.80;;
52894;SDS011;38759;53.396;6.722;2024-02-16T13:35:44;3.00;;;1.70;;
52894;SDS011;38759;53.396;6.722;2024-02-16T13:38:09;3.08;;;1.90;;
52894;SDS011;38759;53.396;6.722;2024-02-16T13:40:35;3.20;;;1.60;;
52894;SDS011;38759;53.396;6.722;2024-02-16T13:43:01;3.78;;;1.60;;
52894;SDS011;38759;53.396;6.722;2024-02-16T13:45:29;2.83;;;1.55;;
52894;SDS011;38759;53.396;6.722;2024-02-16T13:48:10;3.33;;;1.73;;
52894;SDS011;38759;53.396;6.722;2024-02-16T13:50:36;3.22;;;1.63;;
52894;SDS011;38759;53.396;6.722;2024-02-16T13:53:02;3.35;;;1.80;;
52894;SDS011;38759;53.396;6.722;2024-02-16T13:55:28;6.90;;;2.13;;
52894;SDS011;38759;53.396;6.722;2024-02-16T13:57:53;3.15;;;1.92;;
52894;SDS011;38759;53.396;6.722;2024-02-16T14:00:19;6.75;;;1.92;;
52894;SDS011;38759;53.396;6.722;2024-02-16T14:02:45;6.03;;;2.70;;
52894;SDS011;38759;53.396;6.722;2024-02-16T14:05:11;5.82;;;2.80;;
52894;SDS011;38759;53.396;6.722;2024-02-16T14:07:37;5.78;;;3.00;;
52894;SDS011;38759;53.396;6.722;2024-02-16T14:10:02;5.22;;;2.70;;
52894;SDS011;38759;53.396;6.722;2024-02-16T14:12:28;7.03;;;3.40;;
52894;SDS011;38759;53.396;6.722;2024-02-16T14:14:54;5.85;;;3.42;;
52894;SDS011;38759;53.396;6.722;2024-02-16T14:17:22;6.32;;;3.45;;
52894;SDS011;38759;53.396;6.722;2024-02-16T14:19:48;8.82;;;3.95;;
52894;SDS011;38759;53.396;6.722;2024-02-16T14:22:14;7.05;;;3.75;;
52894;SDS011;38759;53.396;6.722;2024-02-16T14:24:39;7.28;;;4.15;;
52894;SDS011;38759;53.396;6.722;2024-02-16T14:27:05;7.35;;;3.88;;
52894;SDS011;38759;53.396;6.722;2024-02-16T14:29:31;5.78;;;4.40;;
52894;SDS011;38759;53.396;6.722;2024-02-16T14:31:56;8.20;;;4.60;;
52894;SDS011;38759;53.396;6.722;2024-02-16T14:34:22;8.23;;;4.65;;
52894;SDS011;38759;53.396;6.722;2024-02-16T14:36:48;10.13;;;5.03;;
52894;SDS011;38759;53.396;6.722;2024-02-16T14:39:13;8.90;;;4.70;;
52894;SDS011;38759;53.396;6.722;2024-02-16T14:41:41;6.65;;;4.80;;
52894;SDS011;38759;53.396;6.722;2024-02-16T14:44:08;7.10;;;4.35;;